sensor_id;sensor_type;location;lat;lon;timestamp;P1;durP1;ratioP1;P2;durP2;ratioP2
6259;SDS011;3163;51.516;4.000;2023-07-22T00:00:44;5.17;;;3.70;;
6259;SDS011;3163;51.516;4.000;2023-07-22T00:03:10;4.60;;;3.25;;
6259;SDS011;3163;51.516;4.000;2023-07-22T00:05:36;4.37;;;3.97;;
6259;SDS011;3163;51.516;4.000;2023-07-22T00:08:01;4.60;;;3.20;;
6259;SDS011;3163;51.516;4.000;2023-07-22T00:10:27;3.53;;;3.23;;
6259;SDS011;3163;51.516;4.000;2023-07-22T00:12:53;4.23;;;3.50;;
6259;SDS011;3163;51.516;4.000;2023-07-22T00:15:18;4.60;;;3.77;;
6259;SDS011;3163;51.516;4.000;2023-07-22T00:17:45;4.17;;;3.10;;
6259;SDS011;3163;51.516;4.000;2023-07-22T00:20:11;4.20;;;3.33;;
6259;SDS011;3163;51.516;4.000;2023-07-22T00:22:40;4.80;;;3.70;;
6259;SDS011;3163;51.516;4.000;2023-07-22T00:25:10;5.10;;;3.37;;
6259;SDS011;3163;51.516;4.000;2023-07-22T00:27:39;5.20;;;3.20;;
6259;SDS011;3163;51.516;4.000;2023-07-22T00:30:06;5.23;;;3.23;;
6259;SDS011;3163;51.516;4.000;2023-07-22T00:32:33;4.70;;;3.30;;
6259;SDS011;3163;51.516;4.000;2023-07-22T00:34:58;4.57;;;3.20;;
6259;SDS011;3163;51.516;4.000;2023-07-22T00:37:24;5.07;;;3.70;;
6259;SDS011;3163;51.516;4.000;2023-07-22T00:39:50;4.70;;;3.50;;
6259;SDS011;3163;51.516;4.000;2023-07-22T00:42:16;3.87;;;3.20;;
6259;SDS011;3163;51.516;4.000;2023-07-22T00:44:42;4.27;;;3.70;;
6259;SDS011;3163;51.516;4.000;2023-07-22T00:47:07;5.33;;;3.90;;
6259;SDS011;3163;51.516;4.000;2023-07-22T00:49:33;5.57;;;4.15;;
6259;SDS011;3163;51.516;4.000;2023-07-22T00:52:01;4.80;;;3.08;;
6259;SDS011;3163;51.516;4.000;2023-07-22T00:54:27;4.07;;;3.70;;
6259;SDS011;3163;51.516;4.000;2023-07-22T00:56:54;6.43;;;3.23;;
6259;SDS011;3163;51.516;4.000;2023-07-22T00:59:21;4.70;;;4.20;;
6259;SDS011;3163;51.516;4.000;2023-07-22T01:01:47;4.20;;;3.28;;
6259;SDS011;3163;51.516;4.000;2023-07-22T01:04:13;4.37;;;3.30;;
6259;SDS011;3163;51.516;4.000;2023-07-22T01:06:41;5.20;;;3.47;;
6259;SDS011;3163;51.516;4.000;2023-07-22T01:09:08;5.10;;;3.30;;
6259;SDS011;3163;51.516;4.000;2023-07-22T01:11:34;4.57;;;3.03;;
6259;SDS011;3163;51.516;4.000;2023-07-22T01:14:00;4.03;;;3.43;;
6259;SDS011;3163;51.516;4.000;2023-07-22T01:16:27;6.13;;;3.90;;
6259;SDS011;3163;51.516;4.000;2023-07-22T01:18:53;4.30;;;3.53;;
6259;SDS011;3163;51.516;4.000;2023-07-22T01:21:21;4.47;;;3.23;;
6259;SDS011;3163;51.516;4.000;2023-07-22T01:23:48;4.57;;;3.80;;
6259;SDS011;3163;51.516;4.000;2023-07-22T01:26:15;3.60;;;3.17;;
6259;SDS011;3163;51.516;4.000;2023-07-22T01:28:40;6.40;;;3.80;;
6259;SDS011;3163;51.516;4.000;2023-07-22T01:31:06;4.83;;;3.63;;
6259;SDS011;3163;51.516;4.000;2023-07-22T01:33:32;5.25;;;4.32;;
6259;SDS011;3163;51.516;4.000;2023-07-22T01:35:58;8.13;;;3.88;;
6259;SDS011;3163;51.516;4.000;2023-07-22T01:38:24;3.90;;;3.60;;
6259;SDS011;3163;51.516;4.000;2023-07-22T01:40:49;5.77;;;3.40;;
6259;SDS011;3163;51.516;4.000;2023-07-22T01:43:15;3.40;;;3.07;;
6259;SDS011;3163;51.516;4.000;2023-07-22T01:45:41;4.97;;;4.13;;
6259;SDS011;3163;51.516;4.000;2023-07-22T01:48:07;4.77;;;3.80;;
6259;SDS011;3163;51.516;4.000;2023-07-22T01:50:33;4.77;;;3.80;;
6259;SDS011;3163;51.516;4.000;2023-07-22T01:52:59;5.73;;;3.43;;
6259;SDS011;3163;51.516;4.000;2023-07-22T01:55:24;5.57;;;3.57;;
6259;SDS011;3163;51.516;4.000;2023-07-22T01:57:50;3.73;;;3.37;;
6259;SDS011;3163;51.516;4.000;2023-07-22T02:00:16;3.90;;;3.50;;
6259;SDS011;3163;51.516;4.000;2023-07-22T02:02:42;3.50;;;3.17;;
6259;SDS011;3163;51.516;4.000;2023-07-22T02:05:07;3.80;;;3.40;;
6259;SDS011;3163;51.516;4.000;2023-07-22T02:07:37;5.00;;;3.70;;
6259;SDS011;3163;51.516;4.000;2023-07-22T02:10:03;4.87;;;3.43;;
6259;SDS011;3163;51.516;4.000;2023-07-22T02:12:28;3.47;;;3.10;;
6259;SDS011;3163;51.516;4.000;2023-07-22T02:14:55;5.15;;;4.07;;
6259;SDS011;3163;51.516;4.000;2023-07-22T02:17:20;4.30;;;3.60;;
6259;SDS011;3163;51.516;4.000;2023-07-22T02:19:46;4.57;;;3.90;;
6259;SDS011;3163;51.516;4.000;2023-07-22T02:22:12;5.20;;;3.33;;
6259;SDS011;3163;51.516;4.000;2023-07-22T02:24:38;4.10;;;3.70;;
6259;SDS011;3163;51.516;4.000;2023-07-22T02:27:03;4.47;;;3.77;;
6259;SDS011;3163;51.516;4.000;2023-07-22T02:29:29;3.90;;;3.47;;
6259;SDS011;3163;51.516;4.000;2023-07-22T02:31:58;4.73;;;3.53;;
6259;SDS011;3163;51.516;4.000;2023-07-22T02:34:23;5.23;;;3.67;;
6259;SDS011;3163;51.516;4.000;2023-07-22T02:36:49;3.47;;;2.83;;
6259;SDS011;3163;51.516;4.000;2023-07-22T02:39:15;3.50;;;2.97;;
6259;SDS011;3163;51.516;4.000;2023-07-22T02:41:40;4.10;;;3.70;;
6259;SDS011;3163;51.516;4.000;2023-07-22T02:44:06;4.07;;;3.30;;
6259;SDS011;3163;51.516;4.000;2023-07-22T02:46:32;5.93;;;3.60;;
6259;SDS011;3163;51.516;4.000;2023-07-22T02:48:58;6.03;;;3.53;;
6259;SDS011;3163;51.516;4.000;2023-07-22T02:51:26;4.03;;;3.63;;
6259;SDS011;3163;51.516;4.000;2023-07-22T02:53:52;3.50;;;3.10;;
6259;SDS011;3163;51.516;4.000;2023-07-22T02:56:17;5.37;;;3.87;;
6259;SDS011;3163;51.516;4.000;2023-07-22T02:58:43;6.82;;;4.88;;
6259;SDS011;3163;51.516;4.000;2023-07-22T03:01:09;5.07;;;3.60;;
6259;SDS011;3163;51.516;4.000;2023-07-22T03:03:35;4.90;;;3.60;;
6259;SDS011;3163;51.516;4.000;2023-07-22T03:06:02;4.00;;;3.10;;
6259;SDS011;3163;51.516;4.000;2023-07-22T03:08:29;3.90;;;3.20;;
6259;SDS011;3163;51.516;4.000;2023-07-22T03:10:54;4.13;;;3.17;;
6259;SDS011;3163;51.516;4.000;2023-07-22T03:13:20;7.23;;;3.37;;
6259;SDS011;3163;51.516;4.000;2023-07-22T03:15:46;3.60;;;3.17;;
6259;SDS011;3163;51.516;4.000;2023-07-22T03:18:12;6.57;;;3.23;;
6259;SDS011;3163;51.516;4.000;2023-07-22T03:20:38;4.80;;;3.13;;
6259;SDS011;3163;51.516;4.000;2023-07-22T03:23:04;3.80;;;3.30;;
6259;SDS011;3163;51.516;4.000;2023-07-22T03:25:31;6.67;;;3.40;;
6259;SDS011;3163;51.516;4.000;2023-07-22T03:27:59;4.60;;;3.70;;
6259;SDS011;3163;51.516;4.000;2023-07-22T03:30:28;4.10;;;3.50;;
6259;SDS011;3163;51.516;4.000;2023-07-22T03:32:53;4.10;;;3.67;;
6259;SDS011;3163;51.516;4.000;2023-07-22T03:35:19;4.87;;;3.33;;
6259;SDS011;3163;51.516;4.000;2023-07-22T03:37:45;4.83;;;3.77;;
6259;SDS011;3163;51.516;4.000;2023-07-22T03:40:10;4.00;;;3.33;;
6259;SDS011;3163;51.516;4.000;2023-07-22T03:42:42;6.47;;;4.07;;
6259;SDS011;3163;51.516;4.000;2023-07-22T03:45:08;4.00;;;3.23;;
6259;SDS011;3163;51.516;4.000;2023-07-22T03:47:35;5.33;;;3.67;;
6259;SDS011;3163;51.516;4.000;2023-07-22T03:50:01;7.38;;;3.80;;
6259;SDS011;3163;51.516;4.000;2023-07-22T03:52:27;5.10;;;3.77;;
6259;SDS011;3163;51.516;4.000;2023-07-22T03:54:52;4.40;;;3.70;;
6259;SDS011;3163;51.516;4.000;2023-07-22T03:57:18;6.90;;;3.67;;
6259;SDS011;3163;51.516;4.000;2023-07-22T03:59:43;4.60;;;3.83;;
6259;SDS011;3163;51.516;4.000;2023-07-22T04:02:09;4.53;;;3.13;;
6259;SDS011;3163;51.516;4.000;2023-07-22T04:04:34;5.70;;;3.57;;
6259;SDS011;3163;51.516;4.000;2023-07-22T04:07:00;3.50;;;3.00;;
6259;SDS011;3163;51.516;4.000;2023-07-22T04:09:27;4.43;;;3.43;;
6259;SDS011;3163;51.516;4.000;2023-07-22T04:11:52;3.60;;;3.23;;
6259;SDS011;3163;51.516;4.000;2023-07-22T04:14:18;4.83;;;3.50;;
6259;SDS011;3163;51.516;4.000;2023-07-22T04:16:44;4.17;;;3.33;;
6259;SDS011;3163;51.516;4.000;2023-07-22T04:19:09;5.40;;;3.30;;
6259;SDS011;3163;51.516;4.000;2023-07-22T04:21:35;5.67;;;3.57;;
6259;SDS011;3163;51.516;4.000;2023-07-22T04:24:01;3.53;;;2.90;;
6259;SDS011;3163;51.516;4.000;2023-07-22T04:26:27;5.63;;;3.27;;
6259;SDS011;3163;51.516;4.000;2023-07-22T04:28:53;3.67;;;3.27;;
6259;SDS011;3163;51.516;4.000;2023-07-22T04:31:18;4.10;;;3.13;;
6259;SDS011;3163;51.516;4.000;2023-07-22T04:33:44;3.60;;;3.30;;
6259;SDS011;3163;51.516;4.000;2023-07-22T04:36:10;5.00;;;3.57;;
6259;SDS011;3163;51.516;4.000;2023-07-22T04:38:35;3.80;;;3.10;;
6259;SDS011;3163;51.516;4.000;2023-07-22T04:41:03;4.63;;;2.93;;
6259;SDS011;3163;51.516;4.000;2023-07-22T04:43:29;5.10;;;3.40;;
6259;SDS011;3163;51.516;4.000;2023-07-22T04:45:55;4.13;;;2.80;;
6259;SDS011;3163;51.516;4.000;2023-07-22T04:48:21;4.57;;;3.23;;
6259;SDS011;3163;51.516;4.000;2023-07-22T04:50:49;3.37;;;2.80;;
6259;SDS011;3163;51.516;4.000;2023-07-22T04:53:18;3.73;;;2.93;;
6259;SDS011;3163;51.516;4.000;2023-07-22T04:55:44;4.47;;;3.17;;
6259;SDS011;3163;51.516;4.000;2023-07-22T04:58:09;2.93;;;2.63;;
6259;SDS011;3163;51.516;4.000;2023-07-22T05:00:38;6.30;;;3.63;;
6259;SDS011;3163;51.516;4.000;2023-07-22T05:03:04;4.40;;;3.43;;
6259;SDS011;3163;51.516;4.000;2023-07-22T05:05:30;5.00;;;2.83;;
6259;SDS011;3163;51.516;4.000;2023-07-22T05:07:56;5.00;;;3.50;;
6259;SDS011;3163;51.516;4.000;2023-07-22T05:10:22;3.83;;;2.73;;
6259;SDS011;3163;51.516;4.000;2023-07-22T05:12:47;6.00;;;3.53;;
6259;SDS011;3163;51.516;4.000;2023-07-22T05:15:13;3.20;;;2.90;;
6259;SDS011;3163;51.516;4.000;2023-07-22T05:17:40;4.22;;;3.60;;
6259;SDS011;3163;51.516;4.000;2023-07-22T05:20:06;5.38;;;2.65;;
6259;SDS011;3163;51.516;4.000;2023-07-22T05:22:34;4.73;;;2.47;;
6259;SDS011;3163;51.516;4.000;2023-07-22T05:25:00;3.40;;;2.80;;
6259;SDS011;3163;51.516;4.000;2023-07-22T05:27:26;3.80;;;2.95;;
6259;SDS011;3163;51.516;4.000;2023-07-22T05:29:52;3.23;;;2.70;;
6259;SDS011;3163;51.516;4.000;2023-07-22T05:32:17;3.57;;;2.70;;
6259;SDS011;3163;51.516;4.000;2023-07-22T05:34:43;7.00;;;3.67;;
6259;SDS011;3163;51.516;4.000;2023-07-22T05:37:09;3.67;;;2.70;;
6259;SDS011;3163;51.516;4.000;2023-07-22T05:39:34;3.23;;;2.67;;
6259;SDS011;3163;51.516;4.000;2023-07-22T05:42:00;5.00;;;2.70;;
6259;SDS011;3163;51.516;4.000;2023-07-22T05:44:25;4.38;;;2.55;;
6259;SDS011;3163;51.516;4.000;2023-07-22T05:46:51;3.03;;;2.60;;
6259;SDS011;3163;51.516;4.000;2023-07-22T05:49:16;2.77;;;2.53;;
6259;SDS011;3163;51.516;4.000;2023-07-22T05:51:42;4.67;;;3.37;;
6259;SDS011;3163;51.516;4.000;2023-07-22T05:54:08;3.30;;;2.83;;
6259;SDS011;3163;51.516;4.000;2023-07-22T05:56:33;4.20;;;2.53;;
6259;SDS011;3163;51.516;4.000;2023-07-22T05:58:59;5.38;;;3.53;;
6259;SDS011;3163;51.516;4.000;2023-07-22T06:01:24;4.53;;;3.50;;
6259;SDS011;3163;51.516;4.000;2023-07-22T06:03:50;2.42;;;2.30;;
6259;SDS011;3163;51.516;4.000;2023-07-22T06:06:16;3.85;;;2.75;;
6259;SDS011;3163;51.516;4.000;2023-07-22T06:08:42;4.85;;;2.35;;
6259;SDS011;3163;51.516;4.000;2023-07-22T06:11:07;6.03;;;3.38;;
6259;SDS011;3163;51.516;4.000;2023-07-22T06:13:33;6.20;;;3.27;;
6259;SDS011;3163;51.516;4.000;2023-07-22T06:15:58;3.43;;;2.70;;
6259;SDS011;3163;51.516;4.000;2023-07-22T06:18:24;4.22;;;2.70;;
6259;SDS011;3163;51.516;4.000;2023-07-22T06:20:50;2.67;;;2.28;;
6259;SDS011;3163;51.516;4.000;2023-07-22T06:23:16;2.78;;;2.53;;
6259;SDS011;3163;51.516;4.000;2023-07-22T06:25:41;3.57;;;2.97;;
6259;SDS011;3163;51.516;4.000;2023-07-22T06:28:07;2.47;;;2.28;;
6259;SDS011;3163;51.516;4.000;2023-07-22T06:30:33;3.95;;;2.75;;
6259;SDS011;3163;51.516;4.000;2023-07-22T06:32:58;2.47;;;2.27;;
6259;SDS011;3163;51.516;4.000;2023-07-22T06:35:24;3.23;;;2.43;;
6259;SDS011;3163;51.516;4.000;2023-07-22T06:37:50;3.60;;;2.90;;
6259;SDS011;3163;51.516;4.000;2023-07-22T06:40:15;3.28;;;2.45;;
6259;SDS011;3163;51.516;4.000;2023-07-22T06:42:41;4.28;;;2.65;;
6259;SDS011;3163;51.516;4.000;2023-07-22T06:45:06;4.57;;;3.40;;
6259;SDS011;3163;51.516;4.000;2023-07-22T06:47:33;3.13;;;2.65;;
6259;SDS011;3163;51.516;4.000;2023-07-22T06:49:59;3.03;;;2.13;;
6259;SDS011;3163;51.516;4.000;2023-07-22T06:52:25;3.42;;;2.40;;
6259;SDS011;3163;51.516;4.000;2023-07-22T06:54:51;7.10;;;2.83;;
6259;SDS011;3163;51.516;4.000;2023-07-22T06:57:16;2.75;;;2.50;;
6259;SDS011;3163;51.516;4.000;2023-07-22T06:59:42;4.65;;;2.20;;
6259;SDS011;3163;51.516;4.000;2023-07-22T07:02:08;2.47;;;2.27;;
6259;SDS011;3163;51.516;4.000;2023-07-22T07:04:33;2.70;;;2.03;;
6259;SDS011;3163;51.516;4.000;2023-07-22T07:06:59;3.10;;;2.53;;
6259;SDS011;3163;51.516;4.000;2023-07-22T07:09:25;3.42;;;2.70;;
6259;SDS011;3163;51.516;4.000;2023-07-22T07:11:51;4.13;;;2.15;;
6259;SDS011;3163;51.516;4.000;2023-07-22T07:14:17;6.35;;;2.60;;
6259;SDS011;3163;51.516;4.000;2023-07-22T07:16:43;7.90;;;2.55;;
6259;SDS011;3163;51.516;4.000;2023-07-22T07:19:09;4.47;;;2.58;;
6259;SDS011;3163;51.516;4.000;2023-07-22T07:21:35;2.90;;;2.47;;
6259;SDS011;3163;51.516;4.000;2023-07-22T07:24:00;3.22;;;1.90;;
6259;SDS011;3163;51.516;4.000;2023-07-22T07:26:26;4.95;;;2.60;;
6259;SDS011;3163;51.516;4.000;2023-07-22T07:28:53;3.15;;;2.00;;
6259;SDS011;3163;51.516;4.000;2023-07-22T07:31:18;3.78;;;2.58;;
6259;SDS011;3163;51.516;4.000;2023-07-22T07:33:45;7.70;;;4.15;;
6259;SDS011;3163;51.516;4.000;2023-07-22T07:36:10;10.13;;;3.88;;
6259;SDS011;3163;51.516;4.000;2023-07-22T07:38:36;11.73;;;4.28;;
6259;SDS011;3163;51.516;4.000;2023-07-22T07:41:03;4.93;;;3.47;;
6259;SDS011;3163;51.516;4.000;2023-07-22T07:43:33;8.23;;;4.17;;
6259;SDS011;3163;51.516;4.000;2023-07-22T07:46:12;7.87;;;3.80;;
6259;SDS011;3163;51.516;4.000;2023-07-22T07:48:43;7.07;;;3.60;;
6259;SDS011;3163;51.516;4.000;2023-07-22T07:51:09;6.43;;;4.10;;
6259;SDS011;3163;51.516;4.000;2023-07-22T07:53:37;4.87;;;3.40;;
6259;SDS011;3163;51.516;4.000;2023-07-22T07:56:02;5.03;;;3.77;;
6259;SDS011;3163;51.516;4.000;2023-07-22T07:58:28;19.23;;;5.17;;
6259;SDS011;3163;51.516;4.000;2023-07-22T08:00:54;43.73;;;5.80;;
6259;SDS011;3163;51.516;4.000;2023-07-22T08:03:19;26.53;;;4.87;;
6259;SDS011;3163;51.516;4.000;2023-07-22T08:05:45;7.37;;;3.90;;
6259;SDS011;3163;51.516;4.000;2023-07-22T08:08:11;10.27;;;4.23;;
6259;SDS011;3163;51.516;4.000;2023-07-22T08:10:36;14.50;;;4.07;;
6259;SDS011;3163;51.516;4.000;2023-07-22T08:13:03;88.97;;;8.20;;
6259;SDS011;3163;51.516;4.000;2023-07-22T08:15:29;48.95;;;5.43;;
6259;SDS011;3163;51.516;4.000;2023-07-22T08:17:55;29.67;;;4.97;;
6259;SDS011;3163;51.516;4.000;2023-07-22T08:20:20;8.27;;;3.72;;
6259;SDS011;3163;51.516;4.000;2023-07-22T08:22:46;9.23;;;3.33;;
6259;SDS011;3163;51.516;4.000;2023-07-22T08:25:12;9.32;;;3.33;;
6259;SDS011;3163;51.516;4.000;2023-07-22T08:27:37;6.32;;;2.67;;
6259;SDS011;3163;51.516;4.000;2023-07-22T08:30:03;3.38;;;2.40;;
6259;SDS011;3163;51.516;4.000;2023-07-22T08:32:29;9.70;;;3.50;;
6259;SDS011;3163;51.516;4.000;2023-07-22T08:34:55;5.38;;;2.88;;
6259;SDS011;3163;51.516;4.000;2023-07-22T08:37:21;4.50;;;2.00;;
6259;SDS011;3163;51.516;4.000;2023-07-22T08:39:46;8.57;;;3.75;;
6259;SDS011;3163;51.516;4.000;2023-07-22T08:42:12;5.85;;;3.35;;
6259;SDS011;3163;51.516;4.000;2023-07-22T08:44:40;11.40;;;3.90;;
6259;SDS011;3163;51.516;4.000;2023-07-22T08:47:10;23.80;;;3.88;;
6259;SDS011;3163;51.516;4.000;2023-07-22T08:49:42;4.35;;;2.22;;
6259;SDS011;3163;51.516;4.000;2023-07-22T08:52:14;4.72;;;2.63;;
6259;SDS011;3163;51.516;4.000;2023-07-22T08:54:40;8.43;;;2.20;;
6259;SDS011;3163;51.516;4.000;2023-07-22T08:57:07;8.98;;;2.95;;
6259;SDS011;3163;51.516;4.000;2023-07-22T08:59:34;6.88;;;2.50;;
6259;SDS011;3163;51.516;4.000;2023-07-22T09:02:01;15.48;;;2.92;;
6259;SDS011;3163;51.516;4.000;2023-07-22T09:04:27;11.05;;;2.80;;
6259;SDS011;3163;51.516;4.000;2023-07-22T09:06:53;4.63;;;2.45;;
6259;SDS011;3163;51.516;4.000;2023-07-22T09:09:20;7.32;;;2.47;;
6259;SDS011;3163;51.516;4.000;2023-07-22T09:11:47;5.70;;;2.43;;
6259;SDS011;3163;51.516;4.000;2023-07-22T09:14:14;6.05;;;2.10;;
6259;SDS011;3163;51.516;4.000;2023-07-22T09:16:43;5.22;;;2.33;;
6259;SDS011;3163;51.516;4.000;2023-07-22T09:19:09;7.80;;;2.80;;
6259;SDS011;3163;51.516;4.000;2023-07-22T09:21:34;4.22;;;2.00;;
6259;SDS011;3163;51.516;4.000;2023-07-22T09:24:19;4.00;;;1.85;;
6259;SDS011;3163;51.516;4.000;2023-07-22T09:26:49;5.30;;;1.77;;
6259;SDS011;3163;51.516;4.000;2023-07-22T09:29:15;3.70;;;2.00;;
6259;SDS011;3163;51.516;4.000;2023-07-22T09:31:50;2.08;;;1.85;;
6259;SDS011;3163;51.516;4.000;2023-07-22T09:34:17;3.00;;;1.52;;
6259;SDS011;3163;51.516;4.000;2023-07-22T09:36:53;4.43;;;1.60;;
6259;SDS011;3163;51.516;4.000;2023-07-22T09:39:25;8.73;;;1.77;;
6259;SDS011;3163;51.516;4.000;2023-07-22T09:41:51;4.82;;;2.03;;
6259;SDS011;3163;51.516;4.000;2023-07-22T09:44:20;8.68;;;1.40;;
6259;SDS011;3163;51.516;4.000;2023-07-22T09:46:48;6.70;;;1.80;;
6259;SDS011;3163;51.516;4.000;2023-07-22T09:49:15;3.53;;;1.33;;
6259;SDS011;3163;51.516;4.000;2023-07-22T09:51:43;4.43;;;1.58;;
6259;SDS011;3163;51.516;4.000;2023-07-22T09:54:09;4.13;;;1.25;;
6259;SDS011;3163;51.516;4.000;2023-07-22T09:56:43;1.95;;;1.17;;
6259;SDS011;3163;51.516;4.000;2023-07-22T09:59:14;5.32;;;1.85;;
6259;SDS011;3163;51.516;4.000;2023-07-22T10:01:42;5.10;;;1.60;;
6259;SDS011;3163;51.516;4.000;2023-07-22T10:04:12;4.60;;;1.70;;
6259;SDS011;3163;51.516;4.000;2023-07-22T10:06:41;3.38;;;1.67;;
6259;SDS011;3163;51.516;4.000;2023-07-22T10:09:08;1.80;;;1.27;;
6259;SDS011;3163;51.516;4.000;2023-07-22T10:11:36;3.25;;;1.20;;
6259;SDS011;3163;51.516;4.000;2023-07-22T10:14:04;2.08;;;1.33;;
6259;SDS011;3163;51.516;4.000;2023-07-22T10:16:30;2.33;;;1.17;;
6259;SDS011;3163;51.516;4.000;2023-07-22T10:18:58;3.50;;;1.13;;
6259;SDS011;3163;51.516;4.000;2023-07-22T10:21:24;3.67;;;1.40;;
6259;SDS011;3163;51.516;4.000;2023-07-22T10:23:50;1.48;;;1.10;;
6259;SDS011;3163;51.516;4.000;2023-07-22T10:26:19;2.85;;;1.55;;
6259;SDS011;3163;51.516;4.000;2023-07-22T10:28:45;4.50;;;1.35;;
6259;SDS011;3163;51.516;4.000;2023-07-22T10:31:15;1.58;;;1.15;;
6259;SDS011;3163;51.516;4.000;2023-07-22T10:33:46;3.13;;;1.33;;
6259;SDS011;3163;51.516;4.000;2023-07-22T10:36:14;5.70;;;1.30;;
6259;SDS011;3163;51.516;4.000;2023-07-22T10:38:41;1.40;;;1.30;;
6259;SDS011;3163;51.516;4.000;2023-07-22T10:41:13;6.00;;;1.33;;
6259;SDS011;3163;51.516;4.000;2023-07-22T10:43:42;1.27;;;1.20;;
6259;SDS011;3163;51.516;4.000;2023-07-22T10:46:20;3.03;;;1.63;;
6259;SDS011;3163;51.516;4.000;2023-07-22T10:49:15;4.63;;;1.55;;
6259;SDS011;3163;51.516;4.000;2023-07-22T10:51:41;8.85;;;1.35;;
6259;SDS011;3163;51.516;4.000;2023-07-22T10:54:13;4.28;;;1.33;;
6259;SDS011;3163;51.516;4.000;2023-07-22T10:56:43;3.58;;;1.75;;
6259;SDS011;3163;51.516;4.000;2023-07-22T10:59:11;3.83;;;1.15;;
6259;SDS011;3163;51.516;4.000;2023-07-22T11:01:38;3.33;;;1.38;;
6259;SDS011;3163;51.516;4.000;2023-07-22T11:11:54;2.58;;;0.85;;
6259;SDS011;3163;51.516;4.000;2023-07-22T11:14:34;0.68;;;0.68;;
6259;SDS011;3163;51.516;4.000;2023-07-22T11:17:04;1.30;;;1.20;;
6259;SDS011;3163;51.516;4.000;2023-07-22T11:19:33;2.40;;;1.60;;
6259;SDS011;3163;51.516;4.000;2023-07-22T11:21:59;1.52;;;1.10;;
6259;SDS011;3163;51.516;4.000;2023-07-22T11:24:25;1.83;;;1.25;;
6259;SDS011;3163;51.516;4.000;2023-07-22T11:26:52;2.78;;;1.38;;
6259;SDS011;3163;51.516;4.000;2023-07-22T11:29:18;6.83;;;1.50;;
6259;SDS011;3163;51.516;4.000;2023-07-22T11:31:45;1.80;;;1.33;;
6259;SDS011;3163;51.516;4.000;2023-07-22T11:36:39;6.30;;;1.50;;
6259;SDS011;3163;51.516;4.000;2023-07-22T11:39:06;3.07;;;1.50;;
6259;SDS011;3163;51.516;4.000;2023-07-22T11:41:33;2.60;;;1.15;;
6259;SDS011;3163;51.516;4.000;2023-07-22T11:44:00;1.70;;;1.00;;
6259;SDS011;3163;51.516;4.000;2023-07-22T11:46:27;1.65;;;1.13;;
6259;SDS011;3163;51.516;4.000;2023-07-22T11:48:53;1.70;;;1.00;;
6259;SDS011;3163;51.516;4.000;2023-07-22T11:51:21;1.33;;;1.10;;
6259;SDS011;3163;51.516;4.000;2023-07-22T11:53:48;1.55;;;1.20;;
6259;SDS011;3163;51.516;4.000;2023-07-22T11:56:33;1.52;;;1.00;;
6259;SDS011;3163;51.516;4.000;2023-07-22T11:58:58;1.45;;;1.35;;
6259;SDS011;3163;51.516;4.000;2023-07-22T12:01:24;1.75;;;1.35;;
6259;SDS011;3163;51.516;4.000;2023-07-22T12:03:57;2.40;;;1.00;;
6259;SDS011;3163;51.516;4.000;2023-07-22T12:06:26;0.90;;;0.90;;
6259;SDS011;3163;51.516;4.000;2023-07-22T12:08:52;1.95;;;1.08;;
6259;SDS011;3163;51.516;4.000;2023-07-22T12:11:19;3.15;;;1.08;;
6259;SDS011;3163;51.516;4.000;2023-07-22T12:16:36;2.88;;;1.20;;
6259;SDS011;3163;51.516;4.000;2023-07-22T12:19:04;4.15;;;1.10;;
6259;SDS011;3163;51.516;4.000;2023-07-22T12:21:31;2.08;;;1.20;;
6259;SDS011;3163;51.516;4.000;2023-07-22T12:23:57;2.38;;;1.10;;
6259;SDS011;3163;51.516;4.000;2023-07-22T12:26:22;2.55;;;1.15;;
6259;SDS011;3163;51.516;4.000;2023-07-22T12:28:48;1.15;;;1.05;;
6259;SDS011;3163;51.516;4.000;2023-07-22T12:31:14;1.88;;;1.00;;
6259;SDS011;3163;51.516;4.000;2023-07-22T12:33:39;2.17;;;1.23;;
6259;SDS011;3163;51.516;4.000;2023-07-22T12:36:05;1.17;;;1.08;;
6259;SDS011;3163;51.516;4.000;2023-07-22T12:38:31;3.33;;;1.40;;
6259;SDS011;3163;51.516;4.000;2023-07-22T12:40:57;5.03;;;1.27;;
6259;SDS011;3163;51.516;4.000;2023-07-22T12:43:23;0.90;;;0.90;;
6259;SDS011;3163;51.516;4.000;2023-07-22T12:45:48;3.53;;;1.10;;
6259;SDS011;3163;51.516;4.000;2023-07-22T12:48:15;2.92;;;1.60;;
6259;SDS011;3163;51.516;4.000;2023-07-22T12:50:42;2.42;;;1.10;;
6259;SDS011;3163;51.516;4.000;2023-07-22T12:53:08;3.97;;;1.27;;
6259;SDS011;3163;51.516;4.000;2023-07-22T12:55:34;3.40;;;1.45;;
6259;SDS011;3163;51.516;4.000;2023-07-22T12:57:59;3.55;;;1.15;;
6259;SDS011;3163;51.516;4.000;2023-07-22T13:00:25;2.15;;;1.30;;
6259;SDS011;3163;51.516;4.000;2023-07-22T13:02:51;6.32;;;1.08;;
6259;SDS011;3163;51.516;4.000;2023-07-22T13:05:16;1.95;;;1.17;;
6259;SDS011;3163;51.516;4.000;2023-07-22T13:07:43;2.22;;;1.10;;
6259;SDS011;3163;51.516;4.000;2023-07-22T13:10:08;1.65;;;1.02;;
6259;SDS011;3163;51.516;4.000;2023-07-22T13:12:37;2.35;;;0.93;;
6259;SDS011;3163;51.516;4.000;2023-07-22T13:15:03;4.30;;;1.42;;
6259;SDS011;3163;51.516;4.000;2023-07-22T13:17:29;2.97;;;1.48;;
6259;SDS011;3163;51.516;4.000;2023-07-22T13:19:56;5.22;;;1.90;;
6259;SDS011;3163;51.516;4.000;2023-07-22T13:22:22;3.75;;;1.75;;
6259;SDS011;3163;51.516;4.000;2023-07-22T13:24:47;2.95;;;1.50;;
6259;SDS011;3163;51.516;4.000;2023-07-22T13:27:13;5.10;;;1.20;;
6259;SDS011;3163;51.516;4.000;2023-07-22T13:29:38;3.58;;;1.58;;
6259;SDS011;3163;51.516;4.000;2023-07-22T13:32:04;4.90;;;1.77;;
6259;SDS011;3163;51.516;4.000;2023-07-22T13:34:31;1.25;;;1.23;;
6259;SDS011;3163;51.516;4.000;2023-07-22T13:36:57;3.78;;;1.70;;
6259;SDS011;3163;51.516;4.000;2023-07-22T13:39:22;2.47;;;1.50;;
6259;SDS011;3163;51.516;4.000;2023-07-22T13:41:48;2.53;;;1.48;;
6259;SDS011;3163;51.516;4.000;2023-07-22T13:44:14;1.73;;;1.50;;
6259;SDS011;3163;51.516;4.000;2023-07-22T13:46:39;2.78;;;1.35;;
6259;SDS011;3163;51.516;4.000;2023-07-22T13:49:05;1.92;;;1.48;;
6259;SDS011;3163;51.516;4.000;2023-07-22T13:51:31;3.55;;;1.60;;
6259;SDS011;3163;51.516;4.000;2023-07-22T13:53:56;3.05;;;1.38;;
6259;SDS011;3163;51.516;4.000;2023-07-22T13:56:23;4.75;;;1.50;;
6259;SDS011;3163;51.516;4.000;2023-07-22T13:58:49;3.67;;;1.45;;
6259;SDS011;3163;51.516;4.000;2023-07-22T14:01:15;1.60;;;1.30;;
6259;SDS011;3163;51.516;4.000;2023-07-22T14:03:41;1.58;;;1.10;;
6259;SDS011;3163;51.516;4.000;2023-07-22T14:06:07;1.33;;;1.10;;
6259;SDS011;3163;51.516;4.000;2023-07-22T14:08:33;3.15;;;1.30;;
6259;SDS011;3163;51.516;4.000;2023-07-22T14:10:59;1.92;;;1.20;;
6259;SDS011;3163;51.516;4.000;2023-07-22T14:13:25;3.42;;;1.17;;
6259;SDS011;3163;51.516;4.000;2023-07-22T14:15:50;3.85;;;1.40;;
6259;SDS011;3163;51.516;4.000;2023-07-22T14:18:16;3.22;;;1.20;;
6259;SDS011;3163;51.516;4.000;2023-07-22T14:20:45;4.03;;;1.23;;
6259;SDS011;3163;51.516;4.000;2023-07-22T14:23:11;3.90;;;1.42;;
6259;SDS011;3163;51.516;4.000;2023-07-22T14:25:37;2.10;;;1.25;;
6259;SDS011;3163;51.516;4.000;2023-07-22T14:28:03;1.67;;;1.27;;
6259;SDS011;3163;51.516;4.000;2023-07-22T14:30:29;2.47;;;1.30;;
6259;SDS011;3163;51.516;4.000;2023-07-22T14:32:54;2.70;;;1.33;;
6259;SDS011;3163;51.516;4.000;2023-07-22T14:35:20;2.10;;;1.27;;
6259;SDS011;3163;51.516;4.000;2023-07-22T14:37:46;2.80;;;1.23;;
6259;SDS011;3163;51.516;4.000;2023-07-22T14:40:12;4.20;;;1.00;;
6259;SDS011;3163;51.516;4.000;2023-07-22T14:42:38;1.95;;;1.42;;
6259;SDS011;3163;51.516;4.000;2023-07-22T14:45:05;2.33;;;1.15;;
6259;SDS011;3163;51.516;4.000;2023-07-22T14:47:31;2.13;;;1.50;;
6259;SDS011;3163;51.516;4.000;2023-07-22T14:49:57;6.22;;;1.20;;
6259;SDS011;3163;51.516;4.000;2023-07-22T14:52:22;3.92;;;1.45;;
6259;SDS011;3163;51.516;4.000;2023-07-22T14:54:48;2.42;;;1.30;;
6259;SDS011;3163;51.516;4.000;2023-07-22T14:57:19;3.00;;;1.55;;
6259;SDS011;3163;51.516;4.000;2023-07-22T14:59:44;1.30;;;1.23;;
6259;SDS011;3163;51.516;4.000;2023-07-22T15:02:11;4.78;;;1.50;;
6259;SDS011;3163;51.516;4.000;2023-07-22T15:04:37;1.73;;;0.95;;
6259;SDS011;3163;51.516;4.000;2023-07-22T15:07:02;4.50;;;1.20;;
6259;SDS011;3163;51.516;4.000;2023-07-22T15:09:28;3.72;;;1.10;;
6259;SDS011;3163;51.516;4.000;2023-07-22T15:11:54;3.10;;;0.90;;
6259;SDS011;3163;51.516;4.000;2023-07-22T15:14:19;6.00;;;1.33;;
6259;SDS011;3163;51.516;4.000;2023-07-22T15:16:45;3.97;;;1.20;;
6259;SDS011;3163;51.516;4.000;2023-07-22T15:19:11;3.53;;;1.00;;
6259;SDS011;3163;51.516;4.000;2023-07-22T15:21:37;3.35;;;1.23;;
6259;SDS011;3163;51.516;4.000;2023-07-22T15:24:03;2.63;;;1.10;;